Terminal Aerodrome Forecast
Issued by NWS

Home | Current Version | Previous Version | Text Only | Print | Product List | Glossary On
Versions: 1 2 3 4 5 6 7 8 9 10 11 12 13 14
000
FTUS43 KBIS 102300
TAFJMS
TAF
KJMS 102339Z 1100/1124 16008KT P6SM OVC150
     FM110400 18006KT P6SM FEW150
     FM111200 34009KT P6SM FEW250=

USA.gov is the U.S. government's official web portal to all federal, state and local government web resources and services.